Time;durP1;ratioP1;P1;durP2;ratioP2;P2;SDS_P1;SDS_P2;PMS_P1;PMS_P2;Temp;Humidity;BMP_temperature;BMP_pressure;BME280_temperature;BME280_humidity;BME280_pressure;Samples;Min_cycle;Max_cycle;Signal;HPM_P1;HPM_P2
2024/01/13 05:22:33;;;;;;;10.02;5.97;;;;;;;-1.28;100.00;101350.34;5089275;28;20401;-36
2024/01/13 05:24:58;;;;;;;11.75;6.20;;;;;;;-1.29;100.00;101353.88;5089296;28;20032;-36
2024/01/13 05:27:24;;;;;;;10.27;6.15;;;;;;;-1.14;100.00;101349.69;5087686;28;20446;-38
2024/01/13 05:29:49;;;;;;;11.65;6.75;;;;;;;-1.09;100.00;101345.09;5089128;28;20067;-34
2024/01/13 05:32:14;;;;;;;11.77;6.53;;;;;;;-1.26;100.00;101347.66;5089046;28;20040;-36
2024/01/13 05:34:41;;;;;;;11.50;5.97;;;;;;;-1.26;100.00;101345.03;5088989;28;20048;-39
2024/01/13 05:37:06;;;;;;;14.15;7.32;;;;;;;-1.33;100.00;101352.31;5088805;28;20040;-35
2024/01/13 05:39:32;;;;;;;12.88;7.07;;;;;;;-1.21;100.00;101333.44;5088891;28;20102;-34
2024/01/13 05:41:58;;;;;;;10.68;6.63;;;;;;;-1.21;100.00;101335.22;5088942;28;20131;-34
2024/01/13 05:44:24;;;;;;;11.90;7.32;;;;;;;-1.32;100.00;101333.09;5088982;28;20114;-33
2024/01/13 05:46:49;;;;;;;13.15;7.72;;;;;;;-1.29;100.00;101330.34;5088629;28;20052;-34
2024/01/13 05:49:14;;;;;;;12.43;7.30;;;;;;;-1.26;100.00;101331.97;5088720;28;20048;-36
2024/01/13 05:51:40;;;;;;;12.88;7.10;;;;;;;-1.20;100.00;101329.91;5088777;28;20024;-36
2024/01/13 05:54:05;;;;;;;11.23;6.55;;;;;;;-1.04;100.00;101327.44;5088705;28;20123;-34
2024/01/13 05:56:31;;;;;;;10.57;7.07;;;;;;;-1.21;100.00;101319.53;5088497;28;20089;-34
2024/01/13 05:58:56;;;;;;;12.27;7.45;;;;;;;-1.24;100.00;101327.50;5088589;28;20124;-37
2024/01/13 06:01:24;;;;;;;12.55;7.50;;;;;;;-1.21;100.00;101324.75;5088655;28;20028;-33
2024/01/13 06:03:50;;;;;;;11.48;6.88;;;;;;;-1.42;100.00;101327.44;5088738;28;20066;-35
2024/01/13 06:06:17;;;;;;;13.07;8.23;;;;;;;-1.20;100.00;101321.22;5088300;28;20047;-34
2024/01/13 06:08:43;;;;;;;12.43;7.57;;;;;;;-1.17;100.00;101324.56;5088281;28;20449;-38
2024/01/13 06:11:08;;;;;;;11.82;7.15;;;;;;;-1.58;100.00;101323.81;5088390;28;20043;-34
2024/01/13 06:13:33;;;;;;;13.05;7.47;;;;;;;-1.37;100.00;101322.88;5088386;28;20041;-34
2024/01/13 06:15:59;;;;;;;11.25;6.70;;;;;;;-1.08;100.00;101314.56;5088251;28;20038;-38
2024/01/13 06:18:24;;;;;;;13.98;7.40;;;;;;;-1.13;100.00;101312.16;5087725;28;20089;-36
2024/01/13 06:20:50;;;;;;;11.70;7.53;;;;;;;-1.30;100.00;101312.13;5088062;28;20113;-35
2024/01/13 06:23:15;;;;;;;13.25;8.00;;;;;;;-1.04;100.00;101309.13;5088119;28;20040;-36
2024/01/13 06:25:41;;;;;;;10.40;6.90;;;;;;;-1.26;100.00;101309.28;5088038;28;20024;-38
2024/01/13 06:28:06;;;;;;;13.90;7.45;;;;;;;-1.58;100.00;101315.13;5087941;28;20036;-35
2024/01/13 06:30:32;;;;;;;12.10;6.80;;;;;;;-1.48;100.00;101306.81;5088002;28;20475;-35
2024/01/13 06:32:57;;;;;;;11.98;6.45;;;;;;;-1.18;100.00;101307.16;5079792;28;20040;-36
2024/01/13 06:35:23;;;;;;;9.60;6.70;;;;;;;-1.24;100.00;101307.47;5074425;28;20048;-40
2024/01/13 06:37:48;;;;;;;10.70;6.90;;;;;;;-1.15;100.00;101299.16;5074049;28;20067;-34
2024/01/13 06:40:14;;;;;;;11.40;6.65;;;;;;;-1.10;100.00;101285.88;5074301;28;20139;-34
2024/01/13 06:42:39;;;;;;;12.43;6.78;;;;;;;-1.21;100.00;101291.63;5074306;28;20036;-37
2024/01/13 06:45:05;;;;;;;12.25;6.80;;;;;;;-1.29;100.00;101285.06;5074318;28;20556;-34
2024/01/13 06:47:31;;;;;;;9.52;5.75;;;;;;;-1.28;100.00;101277.13;5073894;28;20043;-34
2024/01/13 06:49:57;;;;;;;10.70;5.88;;;;;;;-1.24;100.00;101286.53;5074230;28;20071;-38
2024/01/13 06:52:22;;;;;;;11.98;7.07;;;;;;;-1.19;100.00;101274.06;5074064;28;20127;-35
2024/01/13 06:54:48;;;;;;;11.00;5.78;;;;;;;-1.44;100.00;101286.59;5074090;28;20488;-35
2024/01/13 06:57:13;;;;;;;10.07;5.22;;;;;;;-1.09;100.00;101284.97;5073821;28;20044;-38
2024/01/13 06:59:39;;;;;;;9.00;6.40;;;;;;;-1.11;100.00;101273.69;5073955;28;20055;-36
2024/01/13 07:02:05;;;;;;;10.45;6.15;;;;;;;-1.07;100.00;101277.88;5073862;28;20059;-35
2024/01/13 07:04:32;;;;;;;10.45;6.78;;;;;;;-1.27;100.00;101277.97;5073931;28;20492;-34
2024/01/13 07:06:58;;;;;;;11.30;6.88;;;;;;;-1.24;100.00;101283.06;5073575;28;20037;-35
2024/01/13 07:09:23;;;;;;;11.60;6.60;;;;;;;-1.48;100.00;101275.47;5073718;28;20377;-38
2024/01/13 07:11:49;;;;;;;10.43;6.85;;;;;;;-1.19;100.00;101270.63;5073722;28;20106;-34
2024/01/13 07:14:14;;;;;;;10.70;7.15;;;;;;;-1.16;100.00;101273.94;5073694;28;20120;-35
2024/01/13 07:16:40;;;;;;;8.35;6.28;;;;;;;-0.98;100.00;101277.44;5073270;28;20540;-34
2024/01/13 07:19:07;;;;;;;12.68;7.35;;;;;;;-1.10;100.00;101270.19;5073527;28;20159;-34
2024/01/13 07:21:33;;;;;;;8.68;6.38;;;;;;;-1.02;100.00;101272.44;5073256;28;20041;-33
2024/01/13 07:23:58;;;;;;;9.38;6.28;;;;;;;11.64;83.54;101254.22;5073582;28;20028;-32
2024/01/13 07:26:24;;;;;;;9.45;5.45;;;;;;;11.84;68.26;101257.53;5073370;28;20547;-35
2024/01/13 07:28:49;;;;;;;9.35;5.75;;;;;;;7.12;53.53;101257.78;5074308;28;20471;-34
2024/01/13 07:31:14;;;;;;;11.77;6.15;;;;;;;0.82;81.23;101264.50;5076830;28;20099;-36
2024/01/13 07:33:40;;;;;;;9.38;6.22;;;;;;;-0.38;96.00;101272.69;5071660;28;20145;-38
2024/01/13 07:36:06;;;;;;;8.52;6.28;;;;;;;-0.53;100.00;101275.22;5070079;28;20401;-38
2024/01/13 07:38:31;;;;;;;12.48;6.85;;;;;;;-0.46;100.00;101271.38;5071942;28;20044;-36
2024/01/13 07:40:57;;;;;;;12.63;6.80;;;;;;;-0.76;100.00;101273.78;5072741;28;20396;-35
2024/01/13 07:43:22;;;;;;;12.75;6.72;;;;;;;-0.65;100.00;101272.31;5072928;28;20040;-37
2024/01/13 07:45:48;;;;;;;14.27;7.63;;;;;;;-0.97;100.00;101275.69;5071858;28;20384;-35
2024/01/13 07:48:13;;;;;;;10.85;6.90;;;;;;;-1.13;100.00;101265.09;5066219;28;20037;-35
2024/01/13 07:50:39;;;;;;;9.82;6.43;;;;;;;-0.81;100.00;101255.69;5072852;28;20470;-35
2024/01/13 07:53:04;;;;;;;9.35;6.43;;;;;;;-0.71;100.00;101262.16;5072856;28;20566;-38
2024/01/13 07:55:29;;;;;;;11.82;6.63;;;;;;;-0.82;100.00;101261.84;5072961;28;20412;-35
2024/01/13 07:57:55;;;;;;;9.55;6.57;;;;;;;-0.93;100.00;101272.81;5072524;28;20043;-34
2024/01/13 08:00:22;;;;;;;9.43;5.80;;;;;;;-1.08;100.00;101267.50;5072871;28;20086;-35
2024/01/13 08:02:48;;;;;;;11.20;6.60;;;;;;;-0.97;100.00;101266.06;5072858;28;20067;-34
2024/01/13 08:05:14;;;;;;;10.68;6.75;;;;;;;-1.21;100.00;101259.41;5072782;28;20040;-36
2024/01/13 08:07:39;;;;;;;11.95;6.63;;;;;;;-0.83;100.00;101258.38;5072714;28;20043;-34
2024/01/13 08:10:05;;;;;;;10.38;5.93;;;;;;;-0.84;100.00;101256.69;5072734;28;20040;-36
2024/01/13 08:12:31;;;;;;;9.95;5.85;;;;;;;-0.91;100.00;101265.75;5072721;28;20086;-39
2024/01/13 08:14:56;;;;;;;10.10;6.25;;;;;;;-1.05;100.00;101277.78;5072574;28;20036;-39
2024/01/13 08:17:22;;;;;;;11.80;7.07;;;;;;;-0.99;100.00;101275.72;5072280;28;20117;-34
2024/01/13 08:19:47;;;;;;;9.93;6.57;;;;;;;-0.96;100.00;101285.22;5072522;28;20040;-36
2024/01/13 08:22:12;;;;;;;10.70;6.65;;;;;;;-0.85;100.00;101280.28;5070985;28;20040;-37
2024/01/13 08:24:38;;;;;;;10.88;6.30;;;;;;;-0.91;100.00;101281.47;5072371;28;20044;-34
2024/01/13 08:27:04;;;;;;;11.18;6.65;;;;;;;-0.73;100.00;101278.84;5072070;28;20068;-35
2024/01/13 08:29:29;;;;;;;9.52;5.93;;;;;;;-1.10;100.00;101272.81;5065694;28;20047;-44
2024/01/13 08:31:55;;;;;;;13.13;6.93;;;;;;;-0.76;100.00;101274.63;5067098;28;20499;-41
2024/01/13 08:34:20;;;;;;;10.02;6.05;;;;;;;-1.04;100.00;101276.88;5072316;28;20052;-44
2024/01/13 08:36:46;;;;;;;10.77;6.72;;;;;;;-1.03;100.00;101279.44;5071907;28;20032;-45
2024/01/13 08:39:11;;;;;;;10.77;6.60;;;;;;;-0.79;100.00;101276.53;5071845;28;20032;-44
2024/01/13 08:41:36;;;;;;;14.02;6.47;;;;;;;-0.69;100.00;101268.16;5072197;28;20832;-44
2024/01/13 08:44:03;;;;;;;9.52;6.18;;;;;;;-0.92;100.00;101278.91;5072083;28;20610;-44
2024/01/13 08:46:28;;;;;;;10.18;6.53;;;;;;;-0.94;100.00;101278.97;5071822;28;20131;-45
2024/01/13 08:48:54;;;;;;;10.98;7.05;;;;;;;-1.04;100.00;101284.72;5071980;28;20107;-44
2024/01/13 08:51:19;;;;;;;11.77;7.13;;;;;;;-0.91;100.00;101294.53;5071933;28;20048;-44
2024/01/13 08:53:45;;;;;;;10.55;6.53;;;;;;;-0.86;100.00;101295.13;5071982;28;20041;-45
2024/01/13 08:56:11;;;;;;;12.18;6.97;;;;;;;-0.79;100.00;101300.06;5071407;28;20040;-40
2024/01/13 08:58:38;;;;;;;10.65;6.85;;;;;;;-0.79;100.00;101298.31;5070565;28;20055;-44
2024/01/13 09:01:03;;;;;;;11.68;7.60;;;;;;;-0.87;100.00;101297.84;5071893;28;20044;-43
2024/01/13 09:03:29;;;;;;;12.80;7.15;;;;;;;-1.02;100.00;101288.13;5071856;28;20047;-45
2024/01/13 09:05:55;;;;;;;13.20;8.43;;;;;;;-1.07;100.00;101279.66;5071754;28;20071;-45
2024/01/13 09:08:21;;;;;;;14.98;7.93;;;;;;;-1.00;100.00;101286.28;5071762;28;20036;-44
2024/01/13 09:10:46;;;;;;;15.98;8.63;;;;;;;-0.84;100.00;101293.31;5071668;28;20078;-44
2024/01/13 09:13:11;;;;;;;18.35;10.30;;;;;;;-0.87;100.00;101280.38;5071784;28;20385;-42
2024/01/13 09:15:37;;;;;;;15.52;9.35;;;;;;;-0.46;100.00;101289.69;5071696;28;20036;-45
2024/01/13 09:18:03;;;;;;;13.60;8.15;;;;;;;-0.88;100.00;101286.53;5071425;28;20048;-44
2024/01/13 09:20:29;;;;;;;16.58;8.60;;;;;;;-0.72;100.00;101291.00;5071995;28;20072;-45
2024/01/13 09:22:54;;;;;;;15.93;8.98;;;;;;;-0.86;100.00;101292.53;5071756;28;20071;-44
2024/01/13 09:25:20;;;;;;;18.25;8.85;;;;;;;-0.76;100.00;101302.56;5064871;28;20051;-43
2024/01/13 09:27:45;;;;;;;16.75;8.45;;;;;;;-0.79;100.00;101289.59;5042584;28;20032;-44
2024/01/13 09:30:11;;;;;;;15.52;9.13;;;;;;;-0.61;100.00;101286.09;5061126;28;20081;-38
2024/01/13 09:32:37;;;;;;;14.88;8.82;;;;;;;-0.76;100.00;101281.63;5058427;28;20484;-36
2024/01/13 09:35:03;;;;;;;14.15;7.88;;;;;;;-0.79;100.00;101282.59;5060704;28;20048;-35
2024/01/13 09:37:29;;;;;;;13.50;8.05;;;;;;;-0.62;100.00;101289.63;5065386;28;20048;-37
2024/01/13 09:39:54;;;;;;;13.75;8.23;;;;;;;-0.91;100.00;101286.69;5071540;28;20174;-39
2024/01/13 09:42:48;;;;;;;16.75;8.20;;;;;;;-0.84;100.00;101282.00;5063444;28;20037;-34
2024/01/13 09:45:14;;;;;;;11.85;8.40;;;;;;;-0.74;100.00;101274.53;5053792;28;20041;-34
2024/01/13 09:47:43;;;;;;;11.57;6.85;;;;;;;-0.92;100.00;101266.66;5065298;28;20110;-36
2024/01/13 09:50:09;;;;;;;13.27;8.23;;;;;;;-0.75;100.00;101268.47;5059948;28;20033;-34
2024/01/13 09:52:35;;;;;;;13.80;8.25;;;;;;;-0.85;100.00;101275.06;5062579;28;20451;-40
2024/01/13 09:55:05;;;;;;;13.43;8.07;;;;;;;-0.53;100.00;101257.75;5062572;28;20051;-35
2024/01/13 09:57:30;;;;;;;13.63;7.63;;;;;;;-0.77;100.00;101243.31;5054853;28;20033;-38
2024/01/13 09:59:56;;;;;;;12.18;7.43;;;;;;;-0.66;100.00;101238.34;5065807;28;20495;-38
2024/01/13 10:02:22;;;;;;;12.65;7.35;;;;;;;-0.49;100.00;101237.50;5071178;28;20171;-35
2024/01/13 10:04:49;;;;;;;12.80;7.55;;;;;;;-0.59;100.00;101237.13;5071200;28;20045;-35
2024/01/13 10:07:14;;;;;;;12.25;6.68;;;;;;;-0.69;100.00;101246.38;5070766;28;20055;-37
2024/01/13 10:09:40;;;;;;;11.77;6.32;;;;;;;-0.90;100.00;101261.38;5075660;28;20036;-35
2024/01/13 10:12:07;;;;;;;11.60;6.70;;;;;;;-0.96;100.00;101256.44;5076032;28;20121;-42
2024/01/13 10:14:35;;;;;;;11.52;6.82;;;;;;;-0.94;100.00;101262.44;5074861;28;20041;-43
2024/01/13 10:17:03;;;;;;;14.15;7.70;;;;;;;-0.76;100.00;101248.44;5075684;28;20039;-44
2024/01/13 10:19:29;;;;;;;11.18;6.05;;;;;;;-0.49;100.00;101253.22;5078216;28;20052;-40
2024/01/13 10:21:55;;;;;;;10.88;6.25;;;;;;;-0.63;100.00;101259.16;5074532;28;20075;-38
2024/01/13 10:24:20;;;;;;;11.45;7.00;;;;;;;-0.75;100.00;101259.75;5074492;28;20377;-43
2024/01/13 10:26:45;;;;;;;13.82;7.20;;;;;;;-0.72;100.00;101243.91;5075066;28;20115;-39
2024/01/13 10:29:13;;;;;;;10.82;7.47;;;;;;;-0.56;100.00;101237.81;5073586;28;20068;-42
2024/01/13 10:31:39;;;;;;;11.40;6.68;;;;;;;-0.78;100.00;101231.13;5075331;28;20048;-43
2024/01/13 10:34:10;;;;;;;9.65;6.88;;;;;;;-0.77;100.00;101225.84;5076635;28;20040;-44
2024/01/13 10:36:36;;;;;;;12.48;6.30;;;;;;;-0.87;100.00;101227.19;5074149;28;20043;-43
2024/01/13 10:39:01;;;;;;;11.93;6.95;;;;;;;-0.53;100.00;101228.13;5073944;28;20492;-42
2024/01/13 10:41:29;;;;;;;11.20;6.28;;;;;;;-0.79;100.00;101214.56;5074267;28;20048;-44
2024/01/13 10:43:57;;;;;;;;;;;;;;;-0.39;100.00;101208.19;5074886;28;20036;-44
2024/01/13 10:46:26;;;;;;;11.82;6.25;;;;;;;-0.69;100.00;101192.28;5074072;28;19917;-38
2024/01/13 10:48:59;;;;;;;10.00;5.10;;;;;;;-1.02;100.00;101200.03;5074231;28;20032;-36
2024/01/13 10:51:30;;;;;;;9.15;5.38;;;;;;;-0.91;100.00;101202.97;5074276;28;20432;-33
2024/01/13 10:53:58;;;;;;;8.45;6.18;;;;;;;-0.65;100.00;101203.44;5074155;28;20055;-35
2024/01/13 10:56:25;;;;;;;7.20;5.43;;;;;;;-0.61;100.00;101199.72;5073847;28;20033;-36
2024/01/13 10:58:52;;;;;;;11.70;5.43;;;;;;;-0.81;100.00;101211.19;5074036;28;20032;-36
2024/01/13 11:01:18;;;;;;;10.53;5.83;;;;;;;-0.98;100.00;101198.97;5074103;28;20083;-36
2024/01/13 11:03:47;;;;;;;6.38;4.20;;;;;;;-0.95;100.00;101182.28;5074001;28;20311;-37
2024/01/13 11:06:12;;;;;;;8.77;4.82;;;;;;;-0.94;100.00;101160.41;5073671;28;20048;-33
2024/01/13 11:08:38;;;;;;;7.22;4.60;;;;;;;-0.87;100.00;101143.50;5073766;28;20029;-35
2024/01/13 11:11:07;;;;;;;5.50;3.80;;;;;;;-0.96;100.00;101117.81;5073838;28;20496;-37
2024/01/13 11:13:39;;;;;;;6.07;4.28;;;;;;;-0.88;100.00;101113.88;5073816;28;20132;-34
2024/01/13 11:16:15;;;;;;;8.13;4.90;;;;;;;-1.33;100.00;101105.75;5073641;28;20115;-33
2024/01/13 11:18:51;;;;;;;6.05;3.38;;;;;;;-1.30;100.00;101098.59;5073535;28;20086;-38
2024/01/13 11:21:17;;;;;;;9.13;5.38;;;;;;;-1.10;100.00;101101.06;5073408;28;20064;-33
2024/01/13 11:23:51;;;;;;;6.32;3.60;;;;;;;-1.33;100.00;101117.03;5073627;28;20067;-33
2024/01/13 11:26:31;;;;;;;5.50;4.32;;;;;;;-1.10;100.00;101131.59;5073411;28;20225;-33
2024/01/13 11:28:57;;;;;;;11.52;6.30;;;;;;;-1.00;100.00;101119.72;5073477;28;20450;-33
2024/01/13 11:31:40;;;;;;;9.60;5.80;;;;;;;-1.16;100.00;101113.59;5073490;28;20059;-33
2024/01/13 11:34:10;;;;;;;8.45;5.00;;;;;;;-1.20;100.00;101136.41;5073404;28;20468;-33
2024/01/13 11:36:39;;;;;;;12.98;6.15;;;;;;;-1.10;100.00;101134.22;5073191;28;20488;-33
2024/01/13 11:39:05;;;;;;;7.07;4.40;;;;;;;-1.42;100.00;101126.19;5072949;28;20488;-33
2024/01/13 11:41:43;;;;;;;8.80;5.90;;;;;;;-1.32;100.00;101110.03;5073206;28;20040;-34
2024/01/13 11:44:10;;;;;;;9.65;5.78;;;;;;;-1.18;100.00;101099.72;5073262;28;20040;-33
2024/01/13 11:46:38;;;;;;;9.57;4.95;;;;;;;-1.23;100.00;101100.00;5072933;28;20098;-34
2024/01/13 11:49:04;;;;;;;11.63;5.43;;;;;;;-1.03;100.00;101077.22;5072944;28;20041;-36
2024/01/13 11:51:58;;;;;;;11.55;6.25;;;;;;;-1.18;100.00;101060.50;5073040;28;20040;-33
2024/01/13 11:54:25;;;;;;;12.13;7.55;;;;;;;-1.13;100.00;101066.34;5072692;28;20032;-34
2024/01/13 11:56:51;;;;;;;10.82;6.20;;;;;;;-1.35;100.00;101071.00;5072588;28;20094;-37
2024/01/13 11:59:17;;;;;;;13.88;6.45;;;;;;;-1.35;100.00;101074.47;5066307;28;20037;-35
2024/01/13 12:01:45;;;;;;;12.20;6.05;;;;;;;-1.19;100.00;101077.13;5061409;28;20046;-33
2024/01/13 12:04:12;;;;;;;13.18;6.95;;;;;;;-1.26;100.00;101089.66;5062681;28;20087;-34
2024/01/13 12:06:40;;;;;;;10.88;6.35;;;;;;;-1.08;100.00;101069.59;5061764;28;20025;-33
2024/01/13 12:09:05;;;;;;;12.65;6.32;;;;;;;-1.08;100.00;101055.66;5063176;28;20056;-34
2024/01/13 12:11:31;;;;;;;17.40;8.05;;;;;;;-1.33;100.00;101066.53;5061866;28;20060;-39
2024/01/13 12:13:56;;;;;;;6.65;2.97;;;;;;;-1.38;100.00;101077.22;5062047;28;20037;-39
2024/01/13 12:16:22;;;;;;;9.95;5.22;;;;;;;-1.54;100.00;101064.06;5062813;28;20041;-33
2024/01/13 12:18:47;;;;;;;10.02;6.13;;;;;;;-1.50;100.00;101044.72;5060893;28;20029;-34
2024/01/13 12:21:14;;;;;;;10.93;6.68;;;;;;;-1.41;100.00;101036.41;5062316;28;20407;-40
2024/01/13 12:23:41;;;;;;;13.23;6.38;;;;;;;-1.55;100.00;101027.56;5061192;28;20037;-35
2024/01/13 12:26:07;;;;;;;10.98;5.88;;;;;;;-1.57;100.00;101004.09;5060881;28;20087;-36
2024/01/13 12:28:33;;;;;;;12.43;6.43;;;;;;;-1.51;100.00;101001.19;5062327;28;20036;-34
2024/01/13 12:31:02;;;;;;;10.52;5.43;;;;;;;-1.55;100.00;101009.28;5061755;28;20033;-34
2024/01/13 12:33:27;;;;;;;9.23;5.32;;;;;;;-1.42;100.00;100995.50;5060726;28;20497;-33
2024/01/13 12:36:03;;;;;;;10.50;6.18;;;;;;;-1.53;100.00;100989.13;5062066;28;20098;-38
2024/01/13 12:38:30;;;;;;;10.13;6.15;;;;;;;-1.65;100.00;100986.22;5061400;28;20133;-33
2024/01/13 12:40:57;;;;;;;13.98;6.88;;;;;;;-1.65;100.00;100990.59;5061485;28;20035;-35
2024/01/13 12:43:28;;;;;;;15.73;7.05;;;;;;;-1.59;100.00;100998.13;5060776;28;20085;-32
2024/01/13 12:45:58;;;;;;;14.18;7.03;;;;;;;-1.56;100.00;100990.16;5060181;28;20032;-32
2024/01/13 12:48:25;;;;;;;15.52;7.70;;;;;;;-1.60;100.00;100986.00;5067723;28;20044;-33
2024/01/13 12:50:51;;;;;;;9.95;5.05;;;;;;;-1.62;100.00;100995.69;5066847;28;20488;-32
2024/01/13 12:53:25;;;;;;;11.25;6.05;;;;;;;-1.58;100.00;100997.19;5055888;28;20106;-33
2024/01/13 12:55:52;;;;;;;13.32;7.18;;;;;;;-1.80;100.00;100999.22;5051772;28;20037;-33
2024/01/13 12:58:17;;;;;;;9.50;4.85;;;;;;;-1.80;100.00;100988.75;5051519;28;20316;-34
2024/01/13 13:00:43;;;;;;;13.00;7.35;;;;;;;-1.82;100.00;100972.31;5051628;28;20051;-33
2024/01/13 13:03:09;;;;;;;18.20;7.07;;;;;;;-1.89;100.00;100973.53;5051671;28;20043;-32
2024/01/13 13:05:34;;;;;;;10.35;5.43;;;;;;;-2.04;100.00;100985.56;5051530;28;20111;-36
2024/01/13 13:08:00;;;;;;;12.93;7.10;;;;;;;-2.01;100.00;100973.22;5051338;28;20059;-37
2024/01/13 13:10:25;;;;;;;15.23;8.02;;;;;;;-1.96;100.00;100966.03;5051587;28;20484;-32
2024/01/13 13:12:50;;;;;;;9.68;5.43;;;;;;;-1.93;100.00;100967.63;5051620;28;20041;-34
2024/01/13 13:15:16;;;;;;;11.25;5.72;;;;;;;-2.04;100.00;100990.81;5051502;28;20041;-35
2024/01/13 13:17:42;;;;;;;10.80;6.40;;;;;;;-2.06;100.00;100993.50;5051158;28;20087;-35
2024/01/13 13:20:08;;;;;;;14.52;7.15;;;;;;;-1.97;100.00;100992.19;5051463;28;20128;-31
2024/01/13 13:22:37;;;;;;;15.55;8.20;;;;;;;-1.75;100.00;100989.38;5051415;28;20063;-36
2024/01/13 13:25:06;;;;;;;18.67;8.20;;;;;;;-1.79;100.00;100980.00;5050998;28;20492;-33
2024/01/13 13:27:35;;;;;;;16.48;8.25;;;;;;;-1.72;100.00;100974.38;5050171;28;20047;-35
2024/01/13 13:30:04;;;;;;;18.38;8.80;;;;;;;-1.85;100.00;100981.16;5051230;28;20503;-35
2024/01/13 13:32:30;;;;;;;15.93;7.70;;;;;;;-1.91;100.00;100968.38;5051316;28;20037;-32
2024/01/13 13:34:55;;;;;;;19.00;7.78;;;;;;;-1.83;100.00;100975.84;5051326;28;20048;-33
2024/01/13 13:37:20;;;;;;;22.35;8.75;;;;;;;-1.94;100.00;100973.78;5050941;28;20045;-33
2024/01/13 13:39:46;;;;;;;13.82;8.57;;;;;;;-1.86;100.00;100974.22;5051065;28;20052;-37
2024/01/13 13:42:11;;;;;;;20.67;9.57;;;;;;;-1.80;100.00;100970.47;5051579;28;20041;-32
2024/01/13 13:44:37;;;;;;;17.27;9.68;;;;;;;-1.46;100.00;100970.44;5055272;28;20112;-34
2024/01/13 13:47:07;;;;;;;19.92;9.60;;;;;;;-1.54;100.00;100964.78;5054991;28;20093;-33
2024/01/13 13:49:33;;;;;;;13.60;7.30;;;;;;;-1.96;100.00;100960.81;5055144;28;20034;-32
2024/01/13 13:51:58;;;;;;;17.25;9.20;;;;;;;-1.82;100.00;100967.94;5074292;28;20181;-32
2024/01/13 13:54:24;;;;;;;18.55;9.13;;;;;;;-1.65;100.00;100967.06;5075178;28;20044;-32
2024/01/13 13:56:49;;;;;;;19.08;9.82;;;;;;;-1.64;100.00;100968.75;5074953;28;20040;-32
2024/01/13 13:59:15;;;;;;;20.35;9.35;;;;;;;-2.00;100.00;100961.88;5075018;28;20093;-35
2024/01/13 14:01:41;;;;;;;18.08;8.20;;;;;;;-1.93;100.00;100963.25;5073330;28;20377;-36
2024/01/13 14:04:09;;;;;;;21.00;9.63;;;;;;;-1.81;100.00;100955.72;5074890;28;20043;-35
2024/01/13 14:06:35;;;;;;;;;;;;;;;-1.84;100.00;100951.47;5075053;28;20089;-34
2024/01/13 14:09:01;;;;;;;20.05;9.52;;;;;;;-1.93;100.00;100952.81;5073672;28;19920;-35
2024/01/13 14:11:26;;;;;;;19.15;10.60;;;;;;;-1.91;100.00;100948.34;5074650;28;20048;-33
2024/01/13 14:13:52;;;;;;;21.65;9.68;;;;;;;-1.82;100.00;100960.09;5074697;28;20746;-32
2024/01/13 14:16:17;;;;;;;19.23;9.82;;;;;;;-1.80;100.00;100955.66;5073180;28;20047;-33
2024/01/13 14:18:47;;;;;;;20.05;9.10;;;;;;;-1.67;100.00;100945.41;5074585;28;20060;-33
2024/01/13 14:21:16;;;;;;;18.25;9.55;;;;;;;-1.82;100.00;100951.44;5074621;28;20045;-34
2024/01/13 14:23:43;;;;;;;19.45;9.75;;;;;;;-1.81;100.00;100955.72;5074858;28;20040;-36
2024/01/13 14:26:10;;;;;;;19.10;9.88;;;;;;;-1.76;100.00;100953.69;5073497;28;20119;-34
2024/01/13 14:28:35;;;;;;;22.45;10.07;;;;;;;-1.80;100.00;100953.03;5074333;28;20116;-34
2024/01/13 14:31:02;;;;;;;19.75;10.30;;;;;;;-1.88;100.00;100949.13;5075251;28;20445;-34
2024/01/13 14:33:27;;;;;;;23.50;10.55;;;;;;;-1.54;100.00;100936.03;5073831;28;20373;-37
2024/01/13 14:35:53;;;;;;;16.25;7.90;;;;;;;-1.87;100.00;100951.66;5073231;28;20047;-37
2024/01/13 14:38:18;;;;;;;19.55;9.63;;;;;;;-1.82;100.00;100947.06;5073273;28;20063;-34
2024/01/13 14:40:43;;;;;;;23.23;11.40;;;;;;;-1.80;100.00;100949.56;5073374;28;20039;-37
2024/01/13 14:43:09;;;;;;;24.08;10.25;;;;;;;-1.78;100.00;100938.13;5074517;28;20041;-33
2024/01/13 14:45:34;;;;;;;22.50;10.05;;;;;;;-1.83;100.00;100928.81;5074097;28;20127;-34
2024/01/13 14:48:00;;;;;;;20.42;9.77;;;;;;;-1.82;100.00;100938.38;5073812;28;20040;-36
2024/01/13 14:50:25;;;;;;;18.23;9.15;;;;;;;-1.80;100.00;100933.91;5074011;28;20452;-32
2024/01/13 14:52:51;;;;;;;19.77;8.88;;;;;;;-1.91;100.00;100931.81;5073960;28;20037;-32
2024/01/13 14:55:16;;;;;;;19.48;9.38;;;;;;;-1.87;100.00;100922.09;5073684;28;20069;-32
2024/01/13 14:57:42;;;;;;;23.33;9.30;;;;;;;-1.88;100.00;100928.22;5073545;28;20032;-36
2024/01/13 15:00:09;;;;;;;18.88;7.78;;;;;;;-2.23;100.00;100920.38;5074121;28;20458;-35
2024/01/13 15:02:36;;;;;;;22.95;10.70;;;;;;;-1.87;100.00;100927.31;5073659;28;20044;-34
2024/01/13 15:05:02;;;;;;;19.77;9.95;;;;;;;-1.99;100.00;100924.38;5073805;28;20043;-38
2024/01/13 15:07:28;;;;;;;21.70;10.13;;;;;;;-1.85;100.00;100923.69;5073475;28;20044;-42
2024/01/13 15:09:54;;;;;;;21.42;9.70;;;;;;;-2.10;100.00;100916.22;5073711;28;20036;-41
2024/01/13 15:12:20;;;;;;;20.88;10.60;;;;;;;-1.84;100.00;100919.31;5073736;28;20039;-33
2024/01/13 15:14:45;;;;;;;10.57;5.32;;;;;;;-2.03;100.00;100917.59;5073601;28;20537;-33
2024/01/13 15:17:10;;;;;;;24.38;9.40;;;;;;;-1.95;100.00;100914.63;5073274;28;20036;-35
2024/01/13 15:19:36;;;;;;;24.77;10.30;;;;;;;-1.95;100.00;100914.63;5073496;28;20035;-36
2024/01/13 15:22:01;;;;;;;25.67;9.25;;;;;;;-1.98;100.00;100910.41;5073324;28;20526;-34
2024/01/13 15:24:26;;;;;;;20.38;10.45;;;;;;;-2.04;100.00;100908.09;5073400;28;20044;-44
2024/01/13 15:26:52;;;;;;;13.85;8.05;;;;;;;-1.98;100.00;100912.16;5072787;28;20036;-38
2024/01/13 15:29:17;;;;;;;19.63;7.80;;;;;;;-2.01;100.00;100910.56;5069217;28;20032;-33
2024/01/13 15:31:43;;;;;;;18.42;8.00;;;;;;;-2.07;100.00;100905.66;5071517;28;20101;-34
2024/01/13 15:34:08;;;;;;;21.70;9.75;;;;;;;-1.87;100.00;100901.19;5060925;28;20040;-37
2024/01/13 15:36:33;;;;;;;17.55;8.35;;;;;;;-2.10;100.00;100908.41;5062085;28;20056;-34
2024/01/13 15:39:00;;;;;;;15.35;8.13;;;;;;;-2.13;100.00;100900.72;5063479;28;20123;-33
2024/01/13 15:41:25;;;;;;;13.45;7.32;;;;;;;-2.05;100.00;100898.56;5061822;28;20095;-32
2024/01/13 15:43:50;;;;;;;13.82;6.60;;;;;;;-1.80;100.00;100892.13;5058348;28;20044;-37
2024/01/13 15:46:16;;;;;;;18.58;8.75;;;;;;;-1.94;100.00;100895.44;5056774;28;20029;-33
2024/01/13 15:48:42;;;;;;;17.90;8.45;;;;;;;-2.04;100.00;100883.75;5063651;28;20101;-43
2024/01/13 15:51:08;;;;;;;16.10;8.07;;;;;;;-2.07;100.00;100895.22;5070563;28;20084;-35
2024/01/13 15:53:34;;;;;;;17.30;7.53;;;;;;;-1.98;100.00;100884.28;5056355;28;20436;-34
2024/01/13 15:55:59;;;;;;;15.10;6.70;;;;;;;-2.09;100.00;100883.13;5058668;28;20036;-37
2024/01/13 15:58:27;;;;;;;13.90;8.13;;;;;;;-1.98;100.00;100906.94;5046850;28;20178;-38
2024/01/13 16:00:54;;;;;;;17.60;8.00;;;;;;;-1.96;100.00;100911.19;5067759;28;20497;-39
2024/01/13 16:03:19;;;;;;;14.38;7.25;;;;;;;-1.94;100.00;100909.34;5065314;28;20028;-34
2024/01/13 16:05:45;;;;;;;17.40;6.65;;;;;;;-2.05;100.00;100903.78;5063636;28;20055;-37
2024/01/13 16:08:14;;;;;;;11.00;5.90;;;;;;;-2.21;100.00;100895.06;5065588;28;20381;-33
2024/01/13 16:10:39;;;;;;;13.00;6.80;;;;;;;-2.07;100.00;100904.81;5065120;28;20040;-33
2024/01/13 16:13:05;;;;;;;22.55;10.07;;;;;;;-1.92;100.00;100911.84;5066941;28;20500;-34
2024/01/13 16:15:30;;;;;;;22.60;7.97;;;;;;;-2.08;100.00;100903.97;5062634;28;20036;-33
2024/01/13 16:17:56;;;;;;;18.90;8.93;;;;;;;-1.98;100.00;100897.34;5063894;28;20059;-41
2024/01/13 16:20:22;;;;;;;13.95;6.03;;;;;;;-2.09;100.00;100899.63;5062502;28;20465;-38
2024/01/13 16:22:47;;;;;;;14.77;7.00;;;;;;;-2.23;100.00;100897.72;5061325;28;20128;-40
2024/01/13 16:25:13;;;;;;;18.58;8.13;;;;;;;-1.80;100.00;100910.41;5063422;28;20088;-43
2024/01/13 16:27:39;;;;;;;19.45;9.52;;;;;;;-1.91;100.00;100911.78;5066803;28;20506;-44
2024/01/13 16:30:05;;;;;;;13.95;6.47;;;;;;;-1.85;100.00;100922.84;5067063;28;20044;-43